createdAt,value
2024-02-22T00:00:00.674Z,2.9
2024-02-22T00:05:00.999Z,4.3
2024-02-22T00:10:01.363Z,3.3
2024-02-22T00:15:00.634Z,1.9
2024-02-22T00:20:01.219Z,2.1
2024-02-22T00:25:01.263Z,3.8
2024-02-22T00:30:00.659Z,1.0
2024-02-22T00:35:00.749Z,2.7
2024-02-22T00:40:01.310Z,2.3
2024-02-22T00:45:00.618Z,0.4
2024-02-22T00:50:00.906Z,1.8
2024-02-22T00:55:01.341Z,2.9
2024-02-22T01:00:00.647Z,2.2
2024-02-22T01:05:00.748Z,2.9
2024-02-22T01:10:01.313Z,2.3
2024-02-22T01:15:00.614Z,0.9
2024-02-22T01:20:00.770Z,0.9
2024-02-22T01:25:01.332Z,4.5
2024-02-22T01:30:00.673Z,1.6
2024-02-22T01:35:00.938Z,2.5
2024-02-22T01:40:01.300Z,2.7
2024-02-22T01:45:00.643Z,2.4
2024-02-22T01:50:00.832Z,4.1
2024-02-22T01:55:01.337Z,4.1
2024-02-22T02:00:00.641Z,3.3
2024-02-22T02:05:00.743Z,3.7
2024-02-22T02:10:01.254Z,4.1
2024-02-22T02:15:00.828Z,4.1
2024-02-22T02:20:00.787Z,3.6
2024-02-22T02:25:01.294Z,2.1
2024-02-22T02:30:00.767Z,4.3
2024-02-22T02:35:01.150Z,2.7
2024-02-22T02:40:01.252Z,1.5
2024-02-22T02:45:00.638Z,3.2
2024-02-22T02:50:00.882Z,4.4
2024-02-22T02:55:01.284Z,4.8
2024-02-22T03:00:00.659Z,4.3
2024-02-22T03:05:00.721Z,5.1
2024-02-22T03:10:01.414Z,5.5
2024-02-22T03:15:00.630Z,9.6
2024-02-22T03:20:00.756Z,10.0
2024-02-22T03:25:01.295Z,6.3
2024-02-22T03:30:00.633Z,6.7
2024-02-22T03:35:00.733Z,8.3
2024-02-22T03:40:01.273Z,6.2
2024-02-22T03:45:00.646Z,6.4
2024-02-22T03:50:00.736Z,6.3
2024-02-22T03:55:01.355Z,2.9
2024-02-22T04:00:00.697Z,3.9
2024-02-22T04:05:00.792Z,4.3
2024-02-22T04:10:01.314Z,6.0
2024-02-22T04:15:00.605Z,4.7
2024-02-22T04:20:00.681Z,7.8
2024-02-22T04:25:01.570Z,10.3
2024-02-22T04:30:00.870Z,7.0
2024-02-22T04:35:00.912Z,10.5
2024-02-22T04:40:01.278Z,9.6
2024-02-22T04:45:00.667Z,10.3
2024-02-22T04:50:00.751Z,4.1
2024-02-22T04:55:01.314Z,4.0
2024-02-22T05:00:00.753Z,8.8
2024-02-22T05:05:00.979Z,10.0
2024-02-22T05:10:01.328Z,6.3
2024-02-22T05:15:00.694Z,5.7
2024-02-22T05:20:00.827Z,6.6
2024-02-22T05:25:01.357Z,5.1
2024-02-22T05:30:00.825Z,9.3
2024-02-22T05:35:00.803Z,5.7
2024-02-22T05:40:01.362Z,3.4
2024-02-22T05:45:00.622Z,3.7
2024-02-22T05:50:00.836Z,4.0
2024-02-22T05:55:01.361Z,3.6
2024-02-22T06:00:00.663Z,4.7
2024-02-22T06:05:01.291Z,4.2
2024-02-22T06:10:01.307Z,7.8
2024-02-22T06:15:00.710Z,2.4
2024-02-22T06:20:00.722Z,7.3
2024-02-22T06:25:01.277Z,5.6
2024-02-22T06:30:00.649Z,3.1
2024-02-22T06:35:00.764Z,2.0
2024-02-22T06:40:01.524Z,2.3
2024-02-22T06:45:00.607Z,3.6
2024-02-22T06:50:00.796Z,2.5
2024-02-22T06:55:01.347Z,3.4
2024-02-22T07:00:00.831Z,1.2
2024-02-22T07:05:00.837Z,2.6
2024-02-22T07:10:01.628Z,2.5
2024-02-22T07:15:00.616Z,5.2
2024-02-22T07:20:00.806Z,1.8
2024-02-22T07:25:01.308Z,3.3
2024-02-22T07:30:00.669Z,2.2
2024-02-22T07:35:00.778Z,1.0
2024-02-22T07:40:01.424Z,1.7
2024-02-22T07:45:00.695Z,2.1
2024-02-22T07:50:00.811Z,2.0
2024-02-22T07:55:01.356Z,4.4
2024-02-22T08:00:00.705Z,1.8
2024-02-22T08:05:00.899Z,1.2
2024-02-22T08:10:01.407Z,1.8
2024-02-22T08:15:00.645Z,2.3
2024-02-22T08:20:00.938Z,3.3
2024-02-22T08:25:01.364Z,3.5
2024-02-22T08:30:00.709Z,3.0
2024-02-22T08:35:00.863Z,5.3
2024-02-22T08:40:15.939Z,4.9
2024-02-22T08:45:00.645Z,3.0
2024-02-22T08:50:00.763Z,2.4
2024-02-22T08:55:01.383Z,3.0
2024-02-22T09:00:00.641Z,3.4
2024-02-22T09:05:03.632Z,3.6
2024-02-22T09:10:01.425Z,3.3
2024-02-22T09:15:00.651Z,4.8
2024-02-22T09:20:00.784Z,3.2
2024-02-22T09:25:01.425Z,2.9
2024-02-22T09:30:00.706Z,4.6
2024-02-22T09:35:01.243Z,4.8
2024-02-22T09:40:01.447Z,3.9
2024-02-22T09:45:00.655Z,5.9
2024-02-22T09:50:00.788Z,5.1
2024-02-22T09:55:01.433Z,4.8
2024-02-22T10:00:00.738Z,1.6
2024-02-22T10:05:00.836Z,6.2
2024-02-22T10:10:01.307Z,2.1
2024-02-22T10:15:02.560Z,2.8
2024-02-22T10:20:01.018Z,5.1
2024-02-22T10:25:01.372Z,3.5
2024-02-22T10:30:00.678Z,3.1
2024-02-22T10:35:00.791Z,6.7
2024-02-22T10:40:05.260Z,5.4
2024-02-22T10:45:00.677Z,3.8
2024-02-22T10:50:00.849Z,2.1
2024-02-22T10:55:01.336Z,3.8
2024-02-22T11:00:00.704Z,5.2
2024-02-22T11:05:00.819Z,6.3
2024-02-22T11:10:01.547Z,6.6
2024-02-22T11:15:00.717Z,5.3
2024-02-22T11:20:00.798Z,4.3
2024-02-22T11:25:01.350Z,5.2
2024-02-22T11:30:00.700Z,3.0
2024-02-22T11:35:00.791Z,3.6
2024-02-22T11:40:01.375Z,4.7
2024-02-22T11:45:00.638Z,9.3
2024-02-22T11:50:00.775Z,6.1
2024-02-22T11:55:01.386Z,2.8
2024-02-22T12:00:00.710Z,5.1
2024-02-22T12:05:01.108Z,4.9
2024-02-22T12:10:01.379Z,2.9
2024-02-22T12:15:00.662Z,3.3
2024-02-22T12:20:00.822Z,5.9
2024-02-22T12:25:01.385Z,2.0
2024-02-22T12:30:00.645Z,6.0
2024-02-22T12:35:01.094Z,3.3
2024-02-22T12:40:01.411Z,2.0
2024-02-22T12:45:00.708Z,0.8
2024-02-22T12:50:00.835Z,4.3
2024-02-22T12:55:01.508Z,2.4
2024-02-22T13:00:00.648Z,1.4
2024-02-22T13:05:00.875Z,1.3
2024-02-22T13:10:01.406Z,2.8
2024-02-22T13:15:01.812Z,1.2
2024-02-22T13:20:00.861Z,0.6
2024-02-22T13:25:01.456Z,1.1
2024-02-22T13:30:00.794Z,2.6
2024-02-22T13:35:00.785Z,2.6
2024-02-22T13:40:14.957Z,5.1
2024-02-22T13:45:00.800Z,4.5
2024-02-22T13:50:00.813Z,5.7
2024-02-22T13:55:01.389Z,3.7
2024-02-22T14:00:00.733Z,2.9
2024-02-22T14:05:00.813Z,2.1
2024-02-22T14:10:01.399Z,2.8
2024-02-22T14:15:00.663Z,4.0
2024-02-22T14:20:00.831Z,1.6
2024-02-22T14:25:01.400Z,2.6
2024-02-22T14:30:00.764Z,3.0
2024-02-22T14:35:00.886Z,5.8
2024-02-22T14:40:01.437Z,0.6
2024-02-22T14:45:00.669Z,3.1
2024-02-22T14:50:00.812Z,2.5
2024-02-22T14:55:01.333Z,4.6
2024-02-22T15:00:00.724Z,3.6
2024-02-22T15:05:01.181Z,2.8
2024-02-22T15:10:01.800Z,4.3
2024-02-22T15:15:00.677Z,6.0
2024-02-22T15:20:00.927Z,2.8
2024-02-22T15:25:01.597Z,2.3
2024-02-22T15:30:00.692Z,0.5
2024-02-22T15:35:00.897Z,4.2
2024-02-22T15:40:01.750Z,2.7
2024-02-22T15:45:00.734Z,1.0
2024-02-22T15:50:00.851Z,2.5
2024-02-22T15:55:01.389Z,3.6
2024-02-22T16:00:00.663Z,3.1
2024-02-22T16:05:00.900Z,3.9
2024-02-22T16:10:01.726Z,1.8
2024-02-22T16:15:00.675Z,2.9
2024-02-22T16:20:00.780Z,4.4
2024-02-22T16:25:01.578Z,3.5
2024-02-22T16:30:00.709Z,2.9
2024-02-22T16:35:00.951Z,5.4
2024-02-22T16:40:01.421Z,5.5
2024-02-22T16:45:00.682Z,6.4
2024-02-22T16:50:00.758Z,9.3
2024-02-22T16:55:01.561Z,7.3
2024-02-22T17:00:00.839Z,4.1
2024-02-22T17:05:01.406Z,6.4
2024-02-22T17:10:01.518Z,5.6
2024-02-22T17:15:00.703Z,5.6
2024-02-22T17:20:00.723Z,5.6
2024-02-22T17:25:01.475Z,3.5
2024-02-22T17:30:00.696Z,6.2
2024-02-22T17:35:00.708Z,7.2
2024-02-22T17:40:01.392Z,5.7
2024-02-22T17:45:00.626Z,5.2
2024-02-22T17:50:00.881Z,8.2
2024-02-22T17:55:01.384Z,9.6
2024-02-22T18:00:00.679Z,6.9
2024-02-22T18:05:01.076Z,6.7
2024-02-22T18:10:01.678Z,4.6
2024-02-22T18:15:00.735Z,9.2
2024-02-22T18:20:02.661Z,7.8
2024-02-22T18:25:01.889Z,9.8
2024-02-22T18:30:00.667Z,7.3
2024-02-22T18:35:01.121Z,8.3
2024-02-22T18:40:01.373Z,6.7
2024-02-22T18:45:03.556Z,6.7
2024-02-22T18:50:00.904Z,6.8
2024-02-22T18:55:01.374Z,10.0
2024-02-22T19:00:00.656Z,5.0
2024-02-22T19:05:00.834Z,5.6
2024-02-22T19:10:01.362Z,6.1
2024-02-22T19:15:00.649Z,7.2
2024-02-22T19:20:01.147Z,6.8
2024-02-22T19:25:01.389Z,6.1
2024-02-22T19:30:00.722Z,6.3
2024-02-22T19:35:00.862Z,6.1
2024-02-22T19:40:01.498Z,5.9
2024-02-22T19:45:00.681Z,5.2
2024-02-22T19:50:00.779Z,9.4
2024-02-22T19:55:01.515Z,5.2
2024-02-22T20:00:00.614Z,5.8
2024-02-22T20:05:00.829Z,8.9
2024-02-22T20:10:01.383Z,4.9
2024-02-22T20:15:00.667Z,6.5
2024-02-22T20:20:00.771Z,8.6
2024-02-22T20:25:01.432Z,8.3
2024-02-22T20:30:00.740Z,7.9
2024-02-22T20:35:14.090Z,9.4
2024-02-22T20:40:01.420Z,5.0
2024-02-22T20:45:00.625Z,6.0
2024-02-22T20:50:00.924Z,4.6
2024-02-22T20:55:01.437Z,6.4
2024-02-22T21:00:00.677Z,6.7
2024-02-22T21:05:00.807Z,9.8
2024-02-22T21:10:01.434Z,6.2
2024-02-22T21:15:00.635Z,7.9
2024-02-22T21:20:00.721Z,8.2
2024-02-22T21:25:01.627Z,8.3
2024-02-22T21:30:00.749Z,4.1
2024-02-22T21:35:00.788Z,8.6
2024-02-22T21:40:01.441Z,8.6
2024-02-22T21:45:00.770Z,9.4
2024-02-22T21:50:00.806Z,5.9
2024-02-22T21:55:01.454Z,5.6
2024-02-22T22:00:00.670Z,9.3
2024-02-22T22:05:00.724Z,8.2
2024-02-22T22:10:01.548Z,5.0
2024-02-22T22:15:00.640Z,7.2
2024-02-22T22:20:00.700Z,8.0
2024-02-22T22:25:01.499Z,8.7
2024-02-22T22:30:00.657Z,9.1
2024-02-22T22:35:00.790Z,8.1
2024-02-22T22:40:01.364Z,6.1
2024-02-22T22:45:00.643Z,8.0
2024-02-22T22:50:00.840Z,8.8
2024-02-22T22:55:01.696Z,7.5
2024-02-22T23:00:00.831Z,5.2
2024-02-22T23:05:00.752Z,6.9
2024-02-22T23:10:01.433Z,8.3
2024-02-22T23:15:00.669Z,5.6
2024-02-22T23:20:00.972Z,6.6
2024-02-22T23:25:01.454Z,7.8
2024-02-22T23:30:00.613Z,6.3
2024-02-22T23:35:00.745Z,3.5
2024-02-22T23:40:01.408Z,5.5
2024-02-22T23:45:00.592Z,7.9
2024-02-22T23:50:00.821Z,10.3
2024-02-22T23:55:01.410Z,3.6
